Steenwijk, Netherlands
Current Conditions -  °F | °C
As of 8:25 PM on Monday 22 Dec 2014 (Local Time) from EHGG Reporting Station
Light Rain Light Rain  
Wind Chill: 52°   Ceiling: 1000
Heat Index: 52°   Visibility: 2.8mi
Dew Point: 50°   Wind: 23mph
Humidity: 94%   Direction: 250°WSW
Pressure: 29.85"   Gusts: NA
Location:  52.79°N, 6.12°E
Report Text: EHGG 221925Z AUTO 25020KT 4600 -RA SCT009 BKN010 BKN013BKN015CB 11/10 Q1011 TEMPO 7000 -DZRA BKN009
Loading
Personal Weather Stations






























Interactive Weather Map New forecast layout! Learn more

10-Day Weather Forecast

Advertisements
Track Severe Weather on mobile